Date,TemperatureHighF,TemperatureAvgF,TemperatureLowF,DewpointHighF,DewpointAvgF,DewpointLowF,HumidityHigh,HumidityAvg,HumidityLow,PressureMaxIn,PressureMinIn,WindSpeedMaxMPH,WindSpeedAvgMPH,GustSpeedMaxMPH,PrecipitationSumIn
2012-1-1,67.1,58.2,45.8,60.0,46.2,30.0,90,67,37,30.28,30.06,9,3,18,0.00
2012-1-2,48.4,40.7,32.1,31.0,16.2,6.0,62,39,22,30.36,30.19,14,4,29,0.00
2012-1-3,38.0,29.3,21.2,16.0,11.0,7.0,81,48,32,30.52,30.35,9,2,15,0.00
2012-1-4,55.5,35.0,18.1,33.0,23.1,15.0,90,67,26,30.40,30.20,8,1,13,0.00
2012-1-5,64.3,43.1,28.5,43.0,34.0,27.0,95,74,39,30.24,30.11,5,0,7,0.00
2012-1-6,68.7,47.8,27.0,54.0,41.4,26.0,96,80,49,30.16,30.01,5,0,10,0.00
2012-1-7,70.6,58.8,50.9,59.0,54.1,49.0,95,85,62,30.08,30.00,8,1,12,0.03
2012-1-8,63.2,56.5,48.3,61.0,55.1,47.0,97,95,90,30.15,30.07,2,0,5,0.97
2012-1-9,70.1,60.6,55.7,63.0,58.6,55.0,97,93,77,30.14,30.02,5,0,10,0.24
2012-1-10,60.7,58.8,57.0,59.0,57.7,56.0,97,96,94,30.02,29.67,7,1,10,0.59
2012-1-11,61.3,52.7,48.1,60.0,50.0,46.0,95,90,83,29.72,29.52,14,2,17,0.73
2012-1-12,51.8,43.5,28.2,48.0,37.3,17.0,95,79,55,30.05,29.68,10,2,19,0.00
2012-1-13,40.6,30.2,21.7,22.0,19.1,15.0,86,65,42,30.26,30.04,8,1,14,0.00
2012-1-14,57.4,39.6,19.6,27.0,23.9,17.0,94,59,29,30.31,30.12,11,2,17,0.00
2012-1-15,59.5,41.4,26.7,34.0,27.3,20.0,93,62,25,30.46,30.26,2,0,6,0.00
2012-1-16,62.8,52.9,41.4,50.0,34.9,28.0,80,52,38,30.40,30.17,7,2,18,0.00
2012-1-17,66.0,58.5,48.4,61.0,55.0,43.0,94,88,81,30.17,29.94,16,4,20,0.48
2012-1-18,47.8,39.3,30.3,42.0,30.6,27.0,89,72,46,30.22,30.08,8,2,13,0.00
2012-1-19,60.6,45.2,26.7,47.0,30.8,24.0,95,63,27,30.15,29.98,11,1,14,0.00
2012-1-20,67.3,59.9,52.8,64.0,56.9,47.0,96,89,74,30.00,29.87,13,2,16,0.34
2012-1-21,69.3,62.4,50.3,64.0,59.1,49.0,96,89,73,30.00,29.84,8,2,18,1.06
2012-1-22,66.2,57.9,50.7,63.0,56.5,50.0,97,95,90,30.03,29.86,12,1,19,0.00
2012-1-23,72.7,64.3,51.3,65.0,52.8,39.0,96,70,30,30.05,29.80,16,3,29,2.02
2012-1-24,66.1,50.0,38.4,42.0,38.1,27.0,94,68,27,30.22,30.06,7,1,8,0.00
2012-1-25,75.7,62.1,41.2,60.0,50.2,37.0,89,66,49,30.16,29.94,7,2,19,0.00
2012-1-26,64.7,62.0,53.7,63.0,59.8,50.0,97,92,83,29.94,29.64,7,1,20,2.60
2012-1-27,57.0,47.8,37.3,50.0,41.1,36.0,95,79,53,30.05,29.75,8,2,16,0.00
2012-1-28,59.5,45.1,33.0,44.0,32.1,20.0,97,66,32,30.32,30.05,11,2,14,0.00
2012-1-29,57.3,39.3,24.7,30.0,22.8,11.0,93,60,17,30.43,30.32,6,1,13,0.00
2012-1-30,65.8,43.1,25.8,36.0,25.7,17.0,94,60,16,30.42,30.30,6,1,11,0.00
2012-1-31,68.4,52.8,37.4,53.0,39.7,28.0,81,63,44,30.32,30.18,6,1,9,0.00
2012-2-1,58.7,57.2,54.4,57.0,54.0,50.0,97,89,76,30.20,30.05,7,1,8,0.55
2012-2-2,68.6,58.8,47.1,59.0,52.5,44.0,97,81,49,30.21,30.09,7,1,10,0.00
2012-2-3,64.5,55.4,48.4,51.0,44.4,37.0,90,68,52,30.27,30.16,7,2,13,0.41
2012-2-4,73.7,61.4,54.4,62.0,55.7,49.0,96,82,66,30.16,29.96,11,2,19,0.46
2012-2-5,61.3,55.9,47.0,57.0,50.9,43.0,96,84,63,30.14,30.00,6,2,13,0.00
2012-2-6,61.4,50.4,42.9,46.0,42.9,41.0,93,77,52,30.19,30.10,8,2,11,0.00
2012-2-7,62.4,48.0,36.5,41.0,37.0,29.0,95,70,30,30.21,30.10,6,1,9,0.00
2012-2-8,58.0,49.3,41.8,42.0,38.6,34.0,87,68,47,30.27,30.14,10,2,14,0.00
2012-2-9,53.8,42.7,34.8,35.0,33.2,32.0,91,71,46,30.29,30.17,6,1,10,0.00
2012-2-10,56.1,46.4,37.3,38.0,36.4,34.0,86,69,52,30.17,29.98,6,1,9,0.00
2012-2-11,44.3,35.3,26.7,37.0,20.8,8.0,86,57,38,30.43,29.99,20,6,25,0.00
2012-2-12,42.2,30.5,22.4,18.0,10.8,8.0,74,46,27,30.51,30.34,12,3,22,0.00
2012-2-13,52.5,36.7,21.1,36.0,22.5,17.0,88,62,27,30.34,30.02,6,1,10,0.26
2012-2-14,50.9,45.0,38.1,46.0,41.5,35.0,93,87,81,30.10,29.95,12,1,14,0.22
2012-2-15,67.8,54.0,39.6,51.0,44.9,38.0,96,74,48,30.17,30.02,9,1,10,0.09
2012-2-16,66.1,57.4,51.2,58.0,52.4,47.0,95,84,61,30.10,29.99,12,1,12,0.37
2012-2-17,67.5,54.0,43.4,47.0,44.3,42.0,94,72,42,30.12,30.00,8,1,10,0.00
2012-2-18,59.0,50.9,45.3,51.0,45.5,39.0,94,83,56,30.01,29.75,11,1,16,0.81
2012-2-19,51.3,46.5,37.8,50.0,43.7,34.0,96,90,79,30.08,29.67,8,2,18,0.10
2012-2-20,62.6,46.1,29.7,41.0,35.9,29.0,96,71,41,30.19,30.07,6,1,10,0.01
2012-2-21,70.6,55.6,47.8,52.0,43.6,39.0,89,67,33,30.17,29.99,9,2,14,0.00
2012-2-22,71.0,61.6,48.6,62.0,56.6,46.0,95,84,63,29.98,29.60,10,2,18,0.07
2012-2-23,79.6,69.5,62.8,65.0,62.0,61.0,94,78,53,29.66,29.46,14,4,26,0.00
2012-2-24,70.6,58.9,42.3,65.0,39.1,19.0,89,52,22,30.18,29.59,18,5,25,0.00
2012-2-25,58.1,44.9,29.7,33.0,26.3,20.0,91,53,24,30.33,30.18,8,1,18,0.00
2012-2-26,64.5,52.7,38.6,36.0,28.0,22.0,74,41,24,30.37,30.22,8,2,14,0.00
2012-2-27,69.5,58.4,50.3,55.0,49.7,37.0,92,74,54,30.37,30.26,7,0,9,0.03
2012-2-28,62.4,59.1,55.2,61.0,56.3,51.0,95,90,81,30.29,30.11,6,1,10,0.42
2012-2-29,73.3,66.8,62.2,66.0,63.5,61.0,95,89,77,30.13,29.86,12,4,24,0.17
2012-3-1,77.3,68.5,62.2,66.0,63.6,58.0,95,85,65,29.94,29.79,8,1,11,1.11
2012-3-2,81.2,71.8,62.5,67.0,64.6,60.0,93,79,57,29.80,29.60,14,6,27,1.38
2012-3-3,62.1,51.8,43.2,61.0,38.4,26.0,95,63,34,29.91,29.63,11,3,15,0.97
2012-3-4,59.3,47.5,31.2,31.0,26.1,20.0,82,47,23,30.07,29.92,11,2,20,0.00
2012-3-5,60.8,52.1,42.6,34.0,26.6,20.0,69,39,22,30.41,30.05,13,3,18,0.00
2012-3-6,67.9,51.9,36.1,36.0,27.7,24.0,71,42,21,30.47,30.33,13,2,16,0.00
2012-3-7,73.8,62.6,51.0,54.0,49.8,37.0,85,64,48,30.40,30.23,12,2,16,0.00
2012-3-8,79.8,68.0,57.0,63.0,57.5,49.0,91,70,52,30.24,30.04,14,3,23,0.19
2012-3-9,59.5,52.9,44.1,57.0,42.2,31.0,95,70,37,30.31,30.12,14,3,17,1.02
2012-3-10,71.3,55.7,37.1,42.0,36.7,31.0,87,52,33,30.37,30.22,6,1,8,0.00
2012-3-11,71.5,60.8,50.6,57.0,47.7,33.0,75,63,48,30.36,30.19,12,2,14,0.00
2012-3-12,69.2,64.7,61.0,63.0,60.2,56.0,91,85,79,30.22,30.13,9,2,18,0.04
2012-3-13,79.7,68.6,60.4,67.0,63.4,59.0,95,84,59,30.20,30.10,5,1,9,0.03
2012-3-14,80.7,67.6,58.9,68.0,62.8,58.0,97,86,53,30.24,30.12,5,0,6,0.01
2012-3-15,86.7,70.2,54.4,67.0,58.9,54.0,97,72,35,30.25,30.09,6,1,12,0.00
2012-3-16,86.2,69.9,55.0,64.0,57.1,54.0,96,68,34,30.18,30.05,6,1,12,0.00
2012-3-17,86.0,72.0,56.1,64.0,57.1,53.0,95,63,33,30.19,30.05,9,1,13,0.00
2012-3-18,86.0,69.3,53.2,61.0,56.6,52.0,96,68,35,30.21,30.07,7,1,14,0.00
2012-3-19,87.7,70.1,56.4,62.0,57.1,55.0,95,68,36,30.12,29.99,10,2,18,0.00
2012-3-20,87.7,73.7,59.3,62.0,57.1,55.0,89,59,36,30.05,29.92,8,1,24,0.00
2012-3-21,82.3,73.2,62.5,65.0,59.3,56.0,83,63,48,30.05,29.94,14,1,20,0.00
2012-3-22,73.2,66.4,62.3,67.0,61.2,57.0,95,84,65,30.08,29.96,7,1,16,1.28
2012-3-23,79.7,70.2,63.2,69.0,65.6,60.0,95,86,64,29.99,29.84,10,3,13,0.38
2012-3-24,73.8,63.3,52.7,59.0,52.2,47.0,97,71,39,29.91,29.81,11,1,15,0.01
2012-3-25,74.4,62.0,48.8,55.0,51.9,48.0,96,73,45,29.95,29.86,10,1,13,0.00
2012-3-26,80.5,63.8,49.5,58.0,53.4,48.0,96,73,38,30.04,29.93,9,1,14,0.00
2012-3-27,86.5,66.4,50.5,57.0,53.4,49.0,96,69,30,30.12,30.01,6,1,13,0.00
2012-3-28,81.2,67.6,55.5,64.0,56.4,51.0,95,71,36,30.14,29.99,7,1,12,0.00
2012-3-29,81.2,67.0,54.7,65.0,59.5,53.0,96,79,51,30.02,29.87,3,0,6,0.01
2012-3-30,76.7,64.1,56.4,67.0,61.8,55.0,97,92,69,29.95,29.80,6,1,14,1.28
2012-3-31,82.4,69.5,60.4,67.0,63.2,56.0,97,82,52,29.88,29.76,10,1,18,0.48
2012-4-1,86.1,71.0,57.1,68.0,62.3,56.0,97,77,48,29.88,29.75,6,1,15,0.01
2012-4-2,88.2,72.9,60.7,69.0,63.9,59.0,97,76,43,29.87,29.73,3,0,7,0.00
2012-4-3,85.9,70.7,57.6,66.0,62.0,57.0,96,76,46,29.94,29.82,6,0,9,0.00
2012-4-4,83.0,70.3,60.8,65.0,62.7,60.0,96,79,49,29.88,29.69,6,1,14,0.00
2012-4-5,74.2,62.6,52.6,65.0,58.6,52.0,97,87,60,29.75,29.61,5,0,25,0.41
2012-4-6,73.5,60.4,53.0,55.0,52.4,48.0,96,77,47,30.05,29.75,10,2,12,0.00
2012-4-7,77.4,62.0,48.4,56.0,49.9,47.0,96,69,36,30.20,30.05,9,1,10,0.00
2012-4-8,77.2,62.3,47.3,56.0,51.1,46.0,96,71,35,30.20,30.06,5,1,12,0.00
2012-4-9,78.1,63.3,50.3,55.0,47.1,38.0,95,62,24,30.12,29.99,7,1,11,0.00
2012-4-10,80.4,61.9,45.6,61.0,51.7,44.0,95,74,35,30.06,29.94,12,1,15,0.02
2012-4-11,68.6,57.2,45.9,55.0,40.2,32.0,96,59,30,30.13,30.01,11,2,13,0.01
2012-4-12,70.2,52.5,37.1,44.0,36.6,32.0,87,58,30,30.20,30.07,3,1,10,0.00
2012-4-13,81.3,61.3,41.7,51.0,45.7,40.0,95,62,29,30.17,30.07,6,0,8,0.00
2012-4-14,81.5,68.6,51.5,59.0,54.8,45.0,89,63,44,30.18,30.05,8,2,17,0.00
2012-4-15,83.8,72.6,59.3,67.0,62.6,56.0,89,72,52,30.07,29.98,11,3,19,0.00
2012-4-16,77.1,69.3,63.0,69.0,65.1,61.0,94,86,76,30.14,30.01,10,2,16,0.32
2012-4-17,79.3,63.8,56.3,68.0,60.3,54.0,96,89,59,30.13,30.03,13,2,16,0.42
2012-4-18,72.2,62.4,55.3,61.0,57.4,54.0,95,84,66,30.04,29.95,6,1,10,0.04
2012-4-19,75.1,64.5,56.1,63.0,59.4,55.0,96,84,65,30.00,29.87,4,1,8,0.00
2012-4-20,78.1,66.9,58.6,65.0,61.3,57.0,96,83,57,29.89,29.74,5,1,7,0.00
2012-4-21,73.2,63.6,53.8,64.0,58.5,48.0,96,84,70,29.78,29.67,10,3,17,0.00
2012-4-22,67.9,57.2,47.6,48.0,43.9,41.0,85,64,42,29.86,29.71,11,5,22,0.00
2012-4-23,62.5,51.0,40.9,43.0,36.8,30.0,87,63,30,29.95,29.85,15,3,22,0.00
2012-4-24,72.7,55.6,36.7,47.0,41.2,35.0,93,63,36,30.00,29.87,8,1,15,0.00
2012-4-25,83.8,67.4,50.3,60.0,54.3,46.0,88,65,40,29.94,29.82,9,2,18,0.00
2012-4-26,85.9,70.6,62.4,63.0,60.9,59.0,90,73,45,29.94,29.88,9,3,18,0.00
2012-5-1,82.2,75.9,69.5,67.0,66.1,65.0,84,72,60,29.97,29.94,2,0,6,0.00
2012-5-2,91.2,76.4,64.1,71.0,66.6,62.0,95,74,45,30.05,29.94,8,1,13,0.09
2012-5-3,77.8,70.5,66.0,71.0,67.8,65.0,96,91,75,30.07,29.97,2,0,8,0.45
2012-5-4,88.8,74.6,66.8,71.0,67.8,65.0,96,81,54,30.06,29.92,5,0,6,0.00
2012-5-5,91.3,77.0,63.4,74.0,69.4,62.0,97,79,51,29.99,29.83,7,0,7,0.01
2012-5-6,89.5,74.7,66.7,71.0,68.0,64.0,97,81,51,29.98,29.82,6,1,12,0.27
2012-5-7,89.3,72.2,64.0,69.0,66.0,63.0,96,83,49,29.90,29.79,7,1,16,0.59
2012-5-8,84.9,71.5,61.6,69.0,65.5,61.0,97,83,54,29.88,29.77,7,1,11,0.93
2012-5-9,74.1,65.9,56.1,65.0,60.4,54.0,96,84,51,29.88,29.79,12,2,15,0.34
2012-5-10,77.2,64.1,50.0,58.0,51.9,47.0,97,69,37,29.95,29.84,6,1,11,0.01
2012-5-11,81.3,67.0,51.2,59.0,54.0,50.0,95,67,38,30.06,29.95,5,0,8,0.00
2012-5-12,80.7,69.0,62.5,66.0,61.3,57.0,94,77,57,30.13,30.02,9,1,20,0.53
2012-5-13,79.3,69.0,63.5,72.0,65.9,62.0,96,90,71,30.04,29.87,7,1,16,1.10
2012-5-14,75.2,67.4,61.8,65.0,63.2,60.0,97,87,68,29.97,29.88,4,1,7,0.00
2012-5-15,80.7,70.0,59.4,68.0,63.1,59.0,97,80,58,29.97,29.88,7,1,10,0.00
2012-5-16,84.0,71.0,59.7,65.0,61.3,57.0,96,74,42,29.98,29.87,6,1,11,0.00
2012-5-17,87.0,72.5,57.8,66.0,61.1,57.0,97,71,39,29.94,29.85,7,1,10,0.00
2012-5-18,88.0,74.2,61.8,66.0,61.7,58.0,94,68,43,29.99,29.90,6,0,8,0.00
2012-5-19,85.9,73.9,60.7,64.0,61.8,58.0,93,68,44,30.07,29.96,5,0,10,0.00
2012-5-20,88.0,74.4,61.7,64.0,61.7,58.0,95,68,40,30.09,29.96,6,1,10,0.00
2012-5-21,83.0,72.8,62.4,67.0,63.8,61.0,96,76,49,30.01,29.88,5,1,10,0.00
2012-5-22,80.7,68.2,59.1,66.0,61.8,58.0,96,81,57,30.01,29.80,7,1,25,0.66
2012-5-23,86.1,71.0,55.7,65.0,58.0,55.0,97,68,35,29.86,29.76,5,1,11,0.00
2012-5-24,91.0,74.6,58.0,72.0,64.3,56.0,94,73,45,29.89,29.79,8,1,13,0.00
2012-5-25,93.7,78.4,65.2,71.0,67.6,64.0,95,73,42,30.04,29.89,4,0,9,0.00
2012-5-26,93.7,80.8,65.1,73.0,67.7,64.0,96,68,40,30.10,29.98,5,1,10,0.00
2012-5-27,95.4,82.1,68.0,73.0,69.9,66.0,93,69,45,30.01,29.88,4,0,7,0.00
2012-5-28,93.4,82.4,69.9,70.0,68.4,66.0,91,65,41,29.94,29.79,6,1,11,0.00
2012-5-29,92.4,80.9,68.0,72.0,69.5,65.0,92,70,49,29.86,29.73,13,1,33,0.25
2012-5-30,94.8,79.2,64.6,71.0,65.9,60.0,97,68,31,29.84,29.74,5,0,7,0.01
2012-5-31,86.9,75.9,67.6,70.0,65.0,61.0,86,69,49,29.82,29.68,8,1,14,0.00
2012-6-1,78.5,69.9,60.5,66.0,60.1,52.0,94,73,41,29.90,29.72,7,2,14,0.00
2012-6-2,81.9,68.1,51.2,60.0,55.7,50.0,95,67,44,29.98,29.87,7,1,12,0.00
2012-6-3,92.0,75.7,61.1,72.0,65.6,59.0,93,73,51,29.95,29.82,13,1,19,0.00
2012-6-4,83.7,72.9,66.7,73.0,68.6,65.0,96,87,67,29.90,29.74,11,1,15,0.61
2012-6-5,90.6,77.2,67.9,72.0,69.1,67.0,97,78,50,29.75,29.63,8,1,10,0.00
2012-6-6,86.0,75.9,65.5,70.0,65.1,61.0,93,71,46,29.88,29.72,6,1,11,0.00
2012-6-7,87.2,75.0,62.2,70.0,65.1,58.0,88,72,51,29.94,29.87,4,1,10,0.00
2012-6-8,89.1,77.4,66.0,68.0,64.0,61.0,91,66,41,29.98,29.88,12,1,12,0.00
2012-6-9,79.1,71.5,67.0,68.0,64.4,62.0,91,79,58,29.97,29.87,8,1,15,0.07
2012-6-10,76.7,71.9,68.6,73.0,69.4,66.0,94,92,86,29.93,29.87,9,2,14,0.22
2012-6-11,87.7,76.1,68.1,77.0,71.8,66.0,96,87,69,30.00,29.87,10,1,27,0.11
2012-6-12,86.8,75.8,65.2,72.0,68.3,64.0,96,79,53,30.00,29.88,8,1,19,0.00
2012-6-13,89.7,78.9,68.9,70.0,66.5,62.0,94,68,42,29.95,29.85,6,1,12,0.00
2012-6-14,96.2,79.9,64.9,73.0,67.5,63.0,94,69,39,29.98,29.87,5,0,12,0.00
2012-6-15,90.7,79.6,67.8,71.0,68.1,65.0,92,70,48,30.07,29.95,4,0,9,0.00
2012-6-16,88.7,78.5,67.5,68.0,63.9,62.0,86,63,42,30.16,30.00,5,0,9,0.00
2012-6-17,90.9,77.9,65.0,66.0,62.2,60.0,86,61,39,30.09,29.91,4,0,9,0.00
2012-6-18,91.8,78.4,62.6,71.0,63.7,60.0,92,63,40,30.01,29.92,11,0,13,0.00
2012-6-19,92.4,78.6,62.6,70.0,63.3,60.0,91,63,38,30.08,29.99,8,0,10,0.00
2012-6-20,90.1,77.9,64.3,68.0,64.4,60.0,87,65,45,30.09,29.98,6,1,9,0.00
2012-6-21,94.0,79.6,62.4,67.0,64.7,61.0,94,64,40,30.04,29.85,8,1,13,0.00
2012-6-22,97.7,82.4,64.3,69.0,66.5,62.0,94,62,35,29.91,29.78,4,0,9,0.00
2012-6-23,100.9,85.6,70.3,72.0,69.2,66.0,89,62,32,29.87,29.80,7,1,10,0.00
2012-6-24,99.1,83.6,71.6,77.0,71.9,70.0,93,70,42,29.88,29.75,6,1,12,0.02
2012-6-25,97.6,85.0,72.6,72.0,69.5,67.0,87,62,39,29.78,29.59,15,2,16,0.00
2012-6-26,96.9,84.8,70.1,70.0,62.5,49.0,68,49,28,29.77,29.63,11,2,15,0.00
2012-6-27,98.1,81.3,61.7,64.0,58.5,50.0,73,48,27,29.95,29.77,4,1,11,0.00
2012-6-28,103.6,85.1,65.2,74.0,66.4,61.0,89,58,26,30.02,29.91,7,1,10,0.00
2012-6-29,106.3,88.9,72.2,74.0,69.1,64.0,92,57,26,29.96,29.78,6,1,11,0.00
2012-6-30,106.6,90.4,72.7,73.0,69.6,67.0,85,54,29,29.88,29.77,6,1,10,0.00
2012-7-1,104.9,88.3,76.8,76.0,71.9,69.0,86,61,33,29.95,29.86,6,1,10,0.00
2012-7-2,90.9,81.0,75.6,78.0,73.0,70.0,89,77,60,30.07,29.93,5,1,10,0.02
2012-7-3,98.9,85.6,71.8,75.0,69.4,62.0,95,63,30,30.00,29.85,11,2,16,0.00
2012-7-4,100.8,84.4,69.7,73.0,68.0,60.0,91,62,26,30.01,29.87,7,1,11,0.00
2012-7-5,98.9,84.1,72.7,75.0,71.4,69.0,91,68,41,30.00,29.84,16,2,17,0.04
2012-7-6,100.8,84.4,71.1,75.0,70.9,68.0,92,67,38,29.96,29.83,6,1,11,0.00
2012-7-7,87.6,79.3,73.6,76.0,72.4,69.0,93,80,60,30.01,29.91,7,1,9,0.15
2012-7-8,97.2,83.7,72.9,75.0,72.7,68.0,94,72,44,30.03,29.87,8,2,16,0.00
2012-7-9,95.9,82.2,71.5,74.0,71.6,68.0,96,73,42,29.96,29.82,8,1,26,1.55
2012-7-10,95.5,77.9,69.1,76.0,70.5,68.0,97,81,44,29.96,29.84,9,1,23,0.24
2012-7-11,87.2,74.2,68.5,73.0,69.9,67.0,96,87,60,30.00,29.92,6,1,15,0.92
2012-7-12,82.0,72.9,68.9,75.0,70.0,68.0,96,91,71,30.02,29.94,8,1,13,0.14
2012-7-13,94.9,78.1,68.3,73.0,70.0,67.0,97,79,43,30.04,29.94,5,0,13,0.22
2012-7-14,92.8,80.2,71.8,77.0,72.5,70.0,96,79,49,30.07,29.96,10,1,19,0.01
2012-7-15,96.1,82.3,71.4,76.0,73.1,70.0,95,76,47,30.11,29.98,6,1,9,0.00
2012-7-16,96.0,80.5,72.0,76.0,73.6,71.0,96,80,49,30.05,29.92,5,1,9,0.00
2012-7-17,92.9,82.0,72.7,78.0,74.1,69.0,96,78,55,29.98,29.86,7,1,14,0.00
2012-7-18,79.7,73.8,70.7,74.0,70.6,69.0,96,90,79,30.05,29.93,3,0,10,2.00
2012-7-19,93.7,79.5,68.8,77.0,72.9,68.0,97,82,58,30.05,29.90,7,1,8,0.01
2012-7-20,86.7,79.7,74.6,77.0,74.6,72.0,93,84,70,29.99,29.88,8,1,12,0.00
2012-7-21,89.3,79.8,74.3,77.0,74.3,72.0,94,84,65,30.02,29.91,6,1,12,0.00
2012-7-22,94.8,82.9,72.1,76.0,73.0,71.0,96,74,48,30.11,30.00,6,1,11,0.00
2012-7-23,97.9,84.6,71.5,76.0,73.6,70.0,96,72,45,30.15,30.00,6,1,7,0.00
2012-7-24,95.9,85.1,73.4,77.0,74.0,71.0,96,72,45,30.07,29.91,6,1,12,0.00
2012-7-25,99.1,86.0,74.0,77.0,73.8,72.0,95,70,43,29.99,29.86,8,1,12,0.00
2012-7-26,98.4,85.7,73.9,78.0,74.7,72.0,94,72,47,29.94,29.82,6,1,11,0.00
2012-7-27,95.7,79.8,72.4,78.0,74.4,71.0,96,84,57,29.97,29.87,7,1,14,0.26
2012-7-28,96.6,82.8,71.3,76.0,73.6,70.0,97,76,51,30.04,29.91,5,1,10,0.00
2012-7-29,96.3,85.6,74.9,78.0,71.6,65.0,94,66,36,29.98,29.88,9,1,12,0.00
2012-7-30,95.2,82.9,70.7,76.0,71.4,67.0,91,70,43,29.97,29.83,4,1,9,0.00
2012-7-31,89.2,78.0,68.8,79.0,74.1,68.0,97,88,70,29.98,29.82,16,2,25,6.69
2012-8-1,100.2,84.9,75.3,80.0,76.3,72.0,97,78,44,29.91,29.80,3,0,8,0.00
2012-8-2,92.1,77.4,73.6,77.0,73.7,71.0,97,89,57,29.90,29.82,5,0,11,0.73
2012-8-3,90.6,78.2,72.3,79.0,74.2,71.0,98,88,67,29.94,29.84,6,1,10,0.00
2012-8-4,95.0,82.8,70.7,77.0,73.8,70.0,97,76,52,30.04,29.92,6,1,8,0.00
2012-8-5,95.0,83.3,72.5,76.0,73.4,71.0,95,74,51,30.12,29.96,4,0,9,0.00
2012-8-6,95.0,81.2,73.5,77.0,73.6,71.0,93,79,52,30.04,29.89,5,1,11,0.00
2012-8-7,93.0,81.0,73.6,79.0,74.7,72.0,96,82,58,29.95,29.84,4,0,9,0.00
2012-8-8,93.4,82.0,73.3,79.0,74.6,71.0,97,79,57,29.97,29.87,3,0,10,0.00
2012-8-9,85.1,76.1,69.7,77.0,72.7,68.0,96,89,76,29.92,29.76,4,1,13,0.58
2012-8-10,88.1,74.4,68.5,77.0,70.7,67.0,96,89,69,29.85,29.75,6,1,15,2.09
2012-8-11,85.1,76.0,65.8,73.0,67.8,62.0,97,78,47,29.94,29.78,7,1,11,0.01
2012-8-12,87.2,73.3,60.3,67.0,62.6,59.0,97,73,41,30.01,29.93,8,0,11,0.00
2012-8-13,86.3,71.4,60.7,75.0,67.4,60.0,97,88,67,30.00,29.88,8,0,12,0.30
2012-8-14,90.9,77.8,68.4,77.0,71.5,67.0,97,82,55,29.92,29.83,8,1,10,0.45
2012-8-15,86.5,76.7,67.3,74.0,71.1,67.0,97,84,60,29.96,29.87,4,0,7,0.00
2012-8-16,93.9,79.2,68.1,76.0,71.9,67.0,97,80,49,30.00,29.87,3,0,9,0.00
2012-8-17,84.4,75.2,68.5,74.0,70.8,67.0,96,87,66,29.98,29.86,10,1,15,0.21
2012-8-18,87.8,74.5,68.8,76.0,71.0,67.0,97,89,63,29.91,29.81,4,0,16,0.54
2012-8-19,82.3,72.6,68.5,73.0,69.9,67.0,97,91,71,29.86,29.80,5,0,8,0.11
2012-8-20,86.8,75.2,66.2,70.0,66.0,61.0,98,76,43,29.91,29.84,2,0,9,0.01
2012-8-21,88.2,73.5,61.2,67.0,62.9,60.0,97,73,41,29.99,29.90,6,0,8,0.00
2012-8-22,87.7,74.2,61.3,66.0,62.5,59.0,96,71,38,30.06,29.98,8,1,15,0.00
2012-8-23,89.5,74.6,59.7,67.0,63.0,59.0,97,71,39,30.08,29.99,6,0,7,0.00
2012-8-24,91.8,76.0,61.1,72.0,67.1,60.0,96,76,46,30.06,29.95,4,0,11,0.02
2012-8-25,90.9,78.2,70.1,74.0,70.6,67.0,92,78,53,30.06,29.98,5,0,9,0.00
2012-8-26,92.0,78.7,68.4,71.0,68.3,65.0,94,73,42,30.11,29.97,3,0,8,0.01
2012-8-27,91.3,79.5,67.0,71.0,68.8,66.0,96,72,49,30.03,29.85,9,1,14,0.00
2012-8-28,86.1,78.5,74.4,77.0,72.9,68.0,94,83,71,29.90,29.80,6,2,14,0.32
2012-8-29,86.1,78.7,73.8,76.0,73.6,72.0,94,85,69,29.89,29.80,5,1,12,0.01
2012-8-30,82.7,78.5,75.1,76.0,74.3,72.0,92,87,79,30.02,29.83,6,1,13,0.01
2012-8-31,89.8,81.0,76.1,78.0,74.9,73.0,93,82,61,30.12,30.03,10,1,13,0.04
2012-9-1,90.1,78.7,72.7,77.0,73.9,71.0,97,86,64,30.13,30.00,9,1,12,0.13
2012-9-2,88.7,80.1,72.7,77.0,74.9,72.0,97,85,68,30.01,29.86,7,1,16,0.00
2012-9-3,84.5,74.9,70.2,78.0,72.2,69.0,96,91,81,29.94,29.80,6,1,15,0.81
2012-9-4,82.9,75.5,72.0,77.0,73.6,71.0,97,93,83,29.86,29.80,5,1,11,0.17
2012-9-5,89.6,78.3,71.9,76.0,73.0,70.0,97,84,64,29.88,29.79,4,0,6,0.00
2012-9-6,87.1,77.9,73.2,77.0,74.0,72.0,96,88,71,29.94,29.84,6,1,10,0.00
2012-9-7,94.0,80.9,69.9,77.0,73.5,69.0,98,80,54,29.92,29.75,6,0,8,0.00
2012-9-8,84.4,75.1,64.8,77.0,70.5,62.0,96,86,68,29.89,29.75,9,1,15,0.06
2012-9-9,79.3,67.3,55.5,62.0,57.6,55.0,97,74,46,30.00,29.88,9,1,15,0.01
2012-9-10,84.8,69.2,55.2,63.0,58.5,54.0,97,73,42,30.08,30.00,5,1,9,0.00
2012-9-11,85.4,71.3,58.6,67.0,61.3,58.0,97,74,41,30.17,30.05,6,1,12,0.00
2012-9-12,83.5,72.7,62.8,65.0,62.2,60.0,90,71,48,30.22,30.11,6,0,12,0.00
2012-9-13,83.6,73.1,63.3,67.0,63.2,59.0,92,72,53,30.22,30.11,6,1,13,0.00
2012-9-14,85.3,72.3,60.4,69.0,63.8,59.0,96,77,47,30.18,30.08,4,0,7,0.00
2012-9-15,86.6,74.5,64.0,68.0,65.4,63.0,95,76,49,30.14,30.02,4,0,6,0.00
2012-9-16,90.2,74.5,63.9,72.0,68.0,63.0,97,81,51,30.04,29.92,6,0,13,0.11
2012-9-17,82.5,73.3,68.8,74.0,70.8,68.0,97,92,74,29.97,29.68,7,1,13,1.20
2012-9-18,78.4,69.8,61.7,69.0,66.8,59.0,97,90,71,29.95,29.64,7,2,13,3.64
2012-9-19,77.6,63.0,50.0,58.0,53.1,49.0,97,74,39,30.05,29.95,7,1,12,0.01
2012-9-20,82.6,63.7,49.2,61.0,55.0,48.0,97,78,37,30.07,29.97,3,0,6,0.01
2012-9-21,85.5,69.2,53.8,64.0,60.1,53.0,97,76,47,30.05,29.91,6,0,9,0.00
2012-9-22,87.3,71.6,59.8,70.0,63.2,57.0,97,77,52,30.06,29.95,5,1,10,0.00
2012-9-23,81.2,66.4,53.0,60.0,56.3,52.0,97,73,40,30.14,30.05,6,1,11,0.00
2012-9-24,78.2,62.2,47.9,54.0,48.8,44.0,92,66,32,30.19,30.07,6,1,9,0.00
2012-9-25,84.1,67.2,52.1,63.0,55.4,50.0,94,70,36,30.14,30.06,4,0,7,0.00
2012-9-26,86.9,70.0,55.9,69.0,62.3,55.0,96,79,47,30.14,30.04,4,0,7,0.00
2012-9-27,89.5,73.4,61.1,71.0,65.6,60.0,97,79,46,30.14,30.01,3,0,6,0.00
2012-9-28,88.4,73.9,61.7,70.0,65.9,61.0,97,79,48,30.06,29.93,4,0,8,0.00
2012-9-29,83.3,72.9,64.9,72.0,67.7,64.0,97,85,64,29.96,29.84,5,0,6,0.00
2012-9-30,70.2,67.8,65.0,69.0,65.6,62.0,97,92,86,29.84,29.61,5,0,8,1.29
2012-10-1,83.4,74.0,65.0,74.0,69.5,62.0,96,86,67,29.61,29.47,15,3,24,0.41
2012-10-2,66.2,61.9,53.4,62.0,59.3,53.0,97,91,81,29.96,29.61,4,1,7,0.02
2012-10-3,77.8,62.8,50.3,65.0,56.8,50.0,98,83,52,30.14,29.96,5,0,7,0.01
2012-10-4,83.2,67.1,54.7,65.0,60.0,54.0,97,81,48,30.24,30.13,3,0,6,0.00
2012-10-5,85.0,68.5,54.9,65.0,60.3,54.0,97,79,45,30.15,29.96,5,0,8,0.01
2012-10-6,75.1,62.6,56.9,66.0,58.9,53.0,97,88,73,30.02,29.93,9,2,13,0.00
2012-10-7,60.4,55.5,50.6,53.0,48.4,45.0,90,78,62,30.11,29.98,12,3,15,0.00
2012-10-8,62.2,53.9,49.0,51.0,47.8,46.0,92,80,63,30.15,30.04,11,2,11,0.00
2012-10-9,72.2,56.4,45.1,55.0,50.0,44.0,97,81,50,30.13,29.99,4,0,8,0.00
2012-10-10,76.3,61.3,47.4,62.0,55.2,47.0,97,82,59,30.15,30.03,7,1,11,0.01
2012-10-11,78.9,62.5,50.4,63.0,56.5,50.0,97,83,55,30.24,30.13,4,1,7,0.01
2012-10-12,82.7,68.3,56.5,67.0,62.7,56.0,97,83,58,30.26,30.15,6,0,11,0.00
2012-10-13,83.9,72.3,63.3,67.0,64.1,61.0,94,77,55,30.23,30.09,9,1,12,0.00
2012-10-14,78.8,71.5,63.5,69.0,65.0,60.0,90,80,69,30.15,29.91,9,2,14,0.01
2012-10-15,76.2,68.9,63.7,67.0,62.5,52.0,97,82,43,29.95,29.88,10,2,17,1.89
2012-10-17,67.1,66.9,66.6,59.0,57.8,57.0,76,73,70,29.72,29.69,4,3,13,0.01
2012-10-18,77.0,65.0,48.2,65.0,55.4,42.0,96,75,30,29.83,29.66,10,1,16,1.12
2012-10-19,73.1,56.1,42.0,50.0,43.0,37.0,97,68,27,29.83,29.73,6,1,19,0.00
2012-10-20,71.5,54.0,42.2,51.0,46.7,41.0,97,79,45,29.97,29.84,6,1,10,0.00
2012-10-21,79.0,58.7,43.0,57.0,50.4,42.0,97,78,39,30.12,29.96,4,0,6,0.00
2012-10-22,82.3,62.0,46.4,57.0,52.3,46.0,97,76,33,30.17,30.04,5,1,7,0.01
2012-10-23,80.5,61.4,48.5,59.0,52.5,48.0,97,77,37,30.15,30.02,3,0,9,0.00
2012-10-24,81.4,63.3,47.9,63.0,55.9,47.0,97,80,49,30.13,29.99,5,0,9,0.01
2012-10-25,81.4,66.4,54.3,65.0,59.5,53.0,97,81,51,30.03,29.93,4,0,10,0.00
2012-10-26,83.7,68.6,56.7,67.0,61.1,53.0,97,79,46,29.99,29.86,6,1,14,0.01
2012-10-27,58.2,51.5,49.5,52.0,46.9,45.0,88,84,81,29.96,29.88,13,4,17,0.00
2012-10-28,59.6,52.7,46.5,46.0,41.5,35.0,85,67,47,29.99,29.86,14,4,22,0.00
2012-10-29,56.5,46.8,37.0,35.0,31.6,27.0,86,58,34,30.05,29.92,13,4,26,0.00
2012-10-30,58.2,45.6,36.8,34.0,30.3,27.0,83,58,32,29.93,29.82,8,2,21,0.00
2012-10-31,67.9,49.8,33.7,43.0,38.7,32.0,96,70,38,29.96,29.86,7,1,13,0.00
2012-11-1,66.8,49.7,34.9,44.0,38.1,32.0,96,70,30,30.04,29.94,8,1,13,0.00
2012-11-2,79.7,56.9,38.9,56.0,48.2,38.0,97,76,40,30.01,29.91,5,1,8,0.00
2012-11-3,83.1,62.9,46.6,64.0,55.3,46.0,97,79,46,30.08,29.95,6,0,10,0.00
2012-11-4,69.1,58.3,44.4,60.0,52.4,41.0,96,82,57,30.05,29.96,7,1,10,0.12
2012-11-5,64.9,51.6,38.5,49.0,42.2,37.0,94,74,40,30.07,29.91,4,0,8,0.51
2012-11-6,55.7,49.8,42.3,48.0,46.0,41.0,97,87,69,29.98,29.89,8,1,12,0.02
2012-11-7,57.0,47.9,37.8,47.0,41.0,36.0,95,78,55,30.10,29.90,12,2,16,0.02
2012-11-8,59.7,44.9,33.5,44.0,39.0,33.0,97,82,50,30.22,30.10,8,1,9,0.01
2012-11-9,70.0,48.1,31.8,49.0,40.1,31.0,97,78,34,30.30,30.16,3,0,5,0.00
2012-11-10,72.7,52.7,36.1,52.0,42.3,35.0,97,73,34,30.32,30.19,5,1,10,0.00
2012-11-11,74.1,59.4,42.3,55.0,48.8,40.0,92,70,50,30.31,30.10,12,1,21,0.00
2012-11-12,62.7,55.6,40.1,59.0,51.1,36.0,94,85,71,30.34,30.09,10,2,15,0.59
2012-11-13,55.9,43.8,36.1,36.0,31.4,28.0,87,65,35,30.39,30.26,10,3,15,0.00
2012-11-14,52.9,44.8,33.6,45.0,38.6,30.0,89,79,70,30.31,30.22,4,0,8,0.00
2012-11-15,62.0,47.2,35.2,45.0,41.0,34.0,96,81,52,30.28,30.18,8,1,11,0.00
2012-11-16,64.6,47.4,34.1,45.0,38.2,33.0,97,74,39,30.30,30.20,9,1,11,0.00
2012-11-17,63.8,46.5,31.7,40.0,34.5,30.0,95,68,32,30.39,30.28,7,1,14,0.00
2012-11-18,64.3,46.6,31.7,44.0,38.1,30.0,96,76,46,30.38,30.25,7,1,9,0.00
2012-11-19,66.7,48.6,35.4,49.0,42.6,34.0,97,82,51,30.29,30.15,3,0,5,0.00
2012-11-20,69.2,52.2,39.7,51.0,44.4,39.0,97,78,43,30.18,30.05,5,0,8,0.00
2012-11-21,71.2,54.4,41.2,53.0,46.8,40.0,96,79,49,30.15,30.08,8,1,10,0.00
2012-11-22,73.3,53.4,37.7,53.0,44.8,37.0,97,77,38,30.22,30.12,6,0,7,0.00
2012-11-23,69.3,53.0,39.5,55.0,46.7,36.0,97,81,54,30.18,30.09,6,1,12,0.00
2012-11-24,50.7,40.9,28.8,36.0,27.4,22.0,86,61,34,30.25,30.15,11,2,17,0.00
2012-11-25,61.6,40.4,25.0,31.0,26.8,23.0,94,65,24,30.20,30.07,4,0,10,0.00
2012-11-26,66.8,50.1,29.0,53.0,40.7,27.0,94,72,51,30.19,30.07,6,1,9,0.00
2012-11-27,59.4,52.1,43.3,56.0,48.8,39.0,96,88,79,30.27,30.04,9,3,15,0.51
2012-11-28,56.6,43.3,32.6,39.0,33.8,30.0,93,72,37,30.41,30.26,7,2,10,0.00
2012-11-29,63.0,42.5,28.3,41.0,34.8,27.0,96,78,42,30.41,30.27,4,0,8,0.00
2012-11-30,66.6,49.8,36.9,53.0,45.4,36.0,97,86,61,30.32,30.19,2,0,5,0.00
2012-12-1,73.1,54.4,41.3,54.0,47.3,40.0,97,79,48,30.30,30.19,7,1,11,0.01
2012-12-2,74.7,57.6,43.8,57.0,49.8,42.0,95,78,50,30.31,30.18,7,1,15,0.00
2012-12-3,73.7,56.4,42.7,58.0,51.0,42.0,97,84,56,30.26,30.15,9,1,14,0.00
2012-12-4,70.4,60.3,47.9,64.0,57.2,47.0,97,90,78,30.25,30.14,11,1,12,0.04
2012-12-5,68.3,61.9,56.5,63.0,59.1,53.0,97,90,77,30.16,30.05,4,0,9,0.03
2012-12-6,73.2,61.3,50.6,58.0,53.5,49.0,94,77,52,30.07,29.95,8,1,12,0.00
2012-12-7,68.0,60.8,56.3,59.0,56.3,54.0,93,85,72,30.01,29.89,11,1,13,0.00
2012-12-8,63.9,60.8,55.8,62.0,59.4,54.0,97,94,91,29.98,29.90,3,0,7,0.03
2012-12-9,70.6,63.6,57.2,63.0,59.4,56.0,97,87,71,30.02,29.84,10,2,18,0.01
2012-12-10,67.6,57.7,41.3,64.0,55.5,37.0,97,92,84,29.93,29.68,9,3,17,1.74
2012-12-11,41.1,39.0,37.1,37.0,32.7,31.0,87,78,69,30.18,29.92,8,2,12,0.00
2012-12-12,54.0,42.5,35.2,39.0,32.7,29.0,81,69,53,30.26,30.15,8,2,10,0.00
2012-12-13,59.9,42.3,29.1,41.0,34.4,27.0,94,76,45,30.35,30.23,5,0,9,0.00
2012-12-14,61.7,47.1,31.8,45.0,40.0,31.0,97,78,53,30.33,30.12,4,0,11,0.00
2012-12-15,63.3,56.5,50.6,57.0,49.6,44.0,86,78,69,30.16,29.95,8,2,15,0.00
2012-12-16,62.7,59.3,56.5,61.0,57.6,55.0,97,94,86,29.95,29.79,7,2,21,1.63
2012-12-17,64.2,58.0,49.7,60.0,56.0,49.0,97,93,81,29.80,29.66,5,1,13,0.04
2012-12-18,64.7,49.0,37.5,48.0,40.9,36.0,97,77,35,29.98,29.78,4,0,8,0.01
2012-12-19,70.9,53.1,35.5,49.0,42.4,35.0,97,71,37,30.07,29.92,5,1,10,0.00
2012-12-20,63.8,51.9,40.5,62.0,42.7,26.0,97,72,52,30.04,29.66,12,3,24,1.07
2012-12-21,49.2,40.0,34.0,24.0,18.3,13.0,58,43,24,30.29,30.04,14,3,19,0.00
2012-12-22,56.5,38.0,25.2,27.0,20.4,13.0,90,54,24,30.36,30.20,8,1,10,0.00
2012-12-23,54.2,43.2,28.0,46.0,33.5,26.0,93,71,46,30.20,29.95,7,1,12,0.06
2012-12-24,68.9,54.9,42.1,61.0,50.3,41.0,97,85,55,29.95,29.79,9,2,14,0.53
2012-12-25,56.4,49.7,40.8,56.0,48.7,40.0,97,96,91,29.93,29.45,12,2,18,1.74
2012-12-26,58.1,38.9,33.3,57.0,34.4,28.0,97,83,76,30.11,29.45,9,3,23,0.02
2012-12-27,39.3,33.8,28.4,32.0,29.5,27.0,95,84,74,30.17,30.07,8,2,13,0.00
2012-12-28,48.3,40.9,30.3,42.0,36.4,29.0,94,84,65,30.07,29.78,8,1,17,0.69
2012-12-29,44.6,37.7,30.2,43.0,32.3,25.0,96,81,66,30.35,29.78,10,3,19,0.02
2012-12-30,48.3,35.3,27.0,30.0,25.6,23.0,86,70,42,30.50,30.34,8,1,12,0.00
2012-12-31,51.9,44.5,33.5,43.0,34.0,27.0,85,67,50,30.36,30.06,7,1,11,0.00
2013-1-1,55.9,53.0,47.7,54.0,50.9,44.0,96,92,77,30.06,29.90,9,1,15,1.54